Impacts TAF Board
For situational awareness. Not to be used for flight planning purposes.
IDs:

KIAD - Washington/Dulles In, VA, US

Issued at 1453 UTC 20 Nov 2018
Updated at 1553 UTC 20 Nov 2018
Potential Impact None Slight Moderate High
Time<<21/16Z 21/17Z 21/18Z 21/19Z 21/20Z 21/21Z 21/22Z 21/23Z 22/00Z 22/01Z 22/02Z 22/03Z 22/04Z
Type PRVL PRVL
VIS >6 >6
CIG -- --
Cover SCT SCT
FltCat VFR VFR
WX -- --
WDir 250 250
WSpd 8 8
WGst -- --
Raw TAF
KIAD 201453Z 2015/2118 32010G17KT P6SM BKN080
  FM201700 30013G21KT P6SM SCT040
  FM202200 30013G20KT P6SM SCT250
  FM210100 30009KT P6SM FEW250
  FM210600 30005KT P6SM FEW250
  FM211100 24004KT P6SM FEW250
  FM211600 25008KT P6SM SCT250


METAR Board
Radar Display
Forecast Discussion
For situational awareness. Not to be used for flight planning purposes.